Météo Nord-Pas-de-Calais   La météo au plus près de chez vous

Station météorologique

Observations météo à Amberieu (01089)

01089001 250 m Dernier relevé à 22:30
18.1°C
Humidité 57 % Vent 2.9 km/h 1020.1 hPa

Journée consultée

Mardi 1 Septembre 2026

Synthèse de la journée

Périodes de référence en UTC

Température maximale

29.3°C

à 16:00

06h 06h

Température minimale

12.6°C

à 07:24

18h 18h

Rafale maximale

30 km/h

à 15:36

00h 00h

Précipitations

0 mm

Cumul quotidien

06h 06h

Ensoleillement

11h 4 mins

Durée quotidienne

00h 00h

Graphiques de la journée

Heure locale Réduire

Données détaillées

Relevés météo

Pas de 6 minutes Afficher les relevés infra-horaires
Relevés météo détaillés à Amberieu pour le Mardi 1 Septembre 2026
Heure Température °C Point de rosée °C Humidité % Vent moyen (raf.), km/h Précipitations mm Température à 10 cm °C Température à 20 cm °C Température à 50 cm °C Température à 100 cm °C Visibilité m Hauteur neige cm Ensoleillement min Rayonnement global W/m² Pression hPa État du sol  
22:30 18.1 °C 11.2 °C 64 % 6 km/h (9 km/h) 0 mm0 mm 24.1 °C 23.5 °C 23.2 °C 22.4 °C 20000 m 0 cm 0 min 0 W/m² 1020.7 hPa
22:24 18.5 °C 11.3 °C 63 % 5 km/h (8 km/h) 0 mm0 mm 24.1 °C 23.5 °C 23.2 °C 22.4 °C 20000 m 0 cm 0 min 0 W/m² 1020.7 hPa
22:18 18.6 °C 11.4 °C 63 % 5 km/h (7 km/h) 0 mm0 mm 24.1 °C 23.5 °C 23.2 °C 22.4 °C 20000 m 0 cm 0 min 0 W/m² 1020.6 hPa
22:12 18.8 °C 11.8 °C 64 % 5 km/h (8 km/h) 0 mm0 mm 24.1 °C 23.5 °C 23.2 °C 22.4 °C 20000 m 0 cm 0 min 0 W/m² 1020.6 hPa
22:06 19 °C 11.8 °C 63 % 6 km/h (9 km/h) 0 mm0 mm 24.1 °C 23.5 °C 23.2 °C 22.4 °C 20000 m 0 cm 0 min 0 W/m² 1020.6 hPa
22:00 19 °C 11.6 °C 62 % 6 km/h (9 km/h) 0 mm0 mm 24.1 °C 23.4 °C 23.2 °C 22.4 °C 20000 m 0 cm 0 min 0 W/m² 1020.5 hPa
21:54 19 °C 11.6 °C 62 % 5 km/h (6 km/h) 0 mm0 mm 24.1 °C 23.5 °C 23.2 °C 22.4 °C 20000 m 0 cm 0 min 0 W/m² 1020.4 hPa
21:48 19 °C 11.6 °C 62 % 5 km/h (6 km/h) 0 mm0 mm 24.1 °C 23.5 °C 23.2 °C 22.4 °C 20000 m 0 cm 0 min 0 W/m² 1020.4 hPa
21:42 19.2 °C 11.7 °C 62 % 5 km/h (6 km/h) 0 mm0 mm 24.1 °C 23.4 °C 23.2 °C 22.4 °C 20000 m 0 cm 0 min 0 W/m² 1020.3 hPa
21:36 19.4 °C 11.4 °C 60 % 4 km/h (5 km/h) 0 mm0 mm 24.1 °C 23.4 °C 23.2 °C 22.4 °C 20000 m 0 cm 0 min 0 W/m² 1020.2 hPa
21:30 19.9 °C 11.1 °C 57 % 3 km/h (4 km/h) 0 mm0 mm 24.1 °C 23.4 °C 23.2 °C 22.4 °C 20000 m 0 cm 0 min 0 W/m² 1020.1 hPa
21:24 20 °C 11 °C 56 % 3 km/h (4 km/h) 0 mm0 mm 24.1 °C 23.4 °C 23.2 °C 22.4 °C 20000 m 0 cm 0 min 0 W/m² 1020 hPa
21:18 20.2 °C 10.9 °C 55 % 4 km/h (5 km/h) 0 mm0 mm 24.1 °C 23.4 °C 23.2 °C 22.4 °C 20000 m 0 cm 0 min 0 W/m² 1020 hPa
21:12 20.6 °C 11 °C 54 % 5 km/h (6 km/h) 0 mm0 mm 24.1 °C 23.4 °C 23.2 °C 22.4 °C 20000 m 0 cm 0 min 0 W/m² 1019.9 hPa
21:06 20.7 °C 11.1 °C 54 % 5 km/h (8 km/h) 0 mm0 mm 24.1 °C 23.4 °C 23.2 °C 22.4 °C 20000 m 0 cm 0 min 0 W/m² 1019.8 hPa
21:00 20.8 °C 10.9 °C 53 % 5 km/h (8 km/h) 0 mm0 mm 24.1 °C 23.4 °C 23.2 °C 22.4 °C 20000 m 0 cm 0 min 0 W/m² 1019.7 hPa
20:54 20.9 °C 11 °C 53 % 6 km/h (8 km/h) 0 mm0 mm 24.1 °C 23.4 °C 23.2 °C 22.4 °C 20000 m 0 cm 0 min 0 W/m² 1019.7 hPa
20:48 21.2 °C 10.9 °C 52 % 6 km/h (8 km/h) 0 mm0 mm 24 °C 23.4 °C 23.2 °C 22.4 °C 20000 m 0 cm 0 min 0 W/m² 1019.6 hPa
20:42 21.5 °C 11.2 °C 52 % 6 km/h (7 km/h) 0 mm0 mm 24 °C 23.4 °C 23.2 °C 22.4 °C 20000 m 0 cm 0 min 0 W/m² 1019.5 hPa
20:36 21.7 °C 10.8 °C 50 % 5 km/h (7 km/h) 0 mm0 mm 24.1 °C 23.4 °C 23.2 °C 22.4 °C 20000 m 0 cm 0 min 0 W/m² 1019.5 hPa
20:30 21.8 °C 10.9 °C 50 % 5 km/h (8 km/h) 0 mm0 mm 24 °C 23.4 °C 23.2 °C 22.4 °C 20000 m 0 cm 0 min 0 W/m² 1019.4 hPa
20:24 22 °C 11.1 °C 50 % 7 km/h (9 km/h) 0 mm0 mm 24 °C 23.4 °C 23.2 °C 22.4 °C 20000 m 0 cm 0 min 0 W/m² 1019.4 hPa
20:18 22.3 °C 11.4 °C 50 % 8 km/h (9 km/h) 0 mm0 mm 24 °C 23.4 °C 23.2 °C 22.4 °C 20000 m 0 cm 0 min 0 W/m² 1019.2 hPa
20:12 22.6 °C 11.6 °C 50 % 6 km/h (9 km/h) 0 mm0 mm 24 °C 23.4 °C 23.2 °C 22.4 °C 20000 m 0 cm 0 min 0 W/m² 1019.2 hPa
20:06 22.8 °C 11.2 °C 48 % 5 km/h (7 km/h) 0 mm0 mm 24 °C 23.4 °C 23.2 °C 22.4 °C 20000 m 0 cm 0 min 0 W/m² 1019.2 hPa
20:00 23.2 °C 10.9 °C 46 % 5 km/h (8 km/h) 0 mm0 mm 24 °C 23.4 °C 23.2 °C 22.4 °C 20000 m 0 cm 0 min 6.7 W/m² 1019.1 hPa
19:54 23.5 °C 11.2 °C 46 % 6 km/h (11 km/h) 0 mm0 mm 24 °C 23.3 °C 23.2 °C 22.4 °C 20000 m 0 cm 4 min 11.3 W/m² 1019.1 hPa
19:48 23.8 °C 10.8 °C 44 % 8 km/h (12 km/h) 0 mm0 mm 24 °C 23.3 °C 23.2 °C 22.4 °C 20000 m 0 cm 0 min 10 W/m² 1019 hPa
19:42 24.1 °C 10.4 °C 42 % 8 km/h (12 km/h) 0 mm0 mm 24 °C 23.3 °C 23.2 °C 22.4 °C 20000 m 0 cm 0 min 11 W/m² 1019 hPa
19:36 24.4 °C 10.3 °C 41 % 10 km/h (14 km/h) 0 mm0 mm 24 °C 23.4 °C 23.2 °C 22.4 °C 20000 m 0 cm 0 min 14.1 W/m² 1018.9 hPa
19:30 24.6 °C 10.1 °C 40 % 12 km/h (15 km/h) 0 mm0 mm 23.9 °C 23.3 °C 23.2 °C 22.4 °C 20000 m 0 cm 0 min 18.1 W/m² 1019 hPa
19:24 24.9 °C 10 °C 39 % 12 km/h (15 km/h) 0 mm0 mm 23.9 °C 23.3 °C 23.2 °C 22.4 °C 20000 m 0 cm 0 min 22.1 W/m² 1019 hPa
19:18 25.1 °C 9.8 °C 38 % 12 km/h (14 km/h) 0 mm0 mm 23.9 °C 23.3 °C 23.2 °C 22.4 °C 20000 m 0 cm 0 min 25 W/m² 1019 hPa
19:12 25.3 °C 9.6 °C 37 % 11 km/h (14 km/h) 0 mm0 mm 23.9 °C 23.3 °C 23.2 °C 22.4 °C 20000 m 0 cm 0 min 27.6 W/m² 1018.9 hPa
19:06 25.4 °C 10 °C 38 % 10 km/h (14 km/h) 0 mm0 mm 23.9 °C 23.3 °C 23.2 °C 22.4 °C 20000 m 0 cm 0 min 29.1 W/m² 1018.9 hPa
19:00 25.7 °C 9.5 °C 36 % 12 km/h (17 km/h) 0 mm0 mm 23.9 °C 23.3 °C 23.2 °C 22.4 °C 20000 m 0 cm 0 min 29 W/m² 1019 hPa
18:54 26 °C 9.8 °C 36 % 12 km/h (17 km/h) 0 mm0 mm 23.9 °C 23.3 °C 23.2 °C 22.4 °C 20000 m 0 cm 0 min 28.3 W/m² 1019 hPa
18:48 26.4 °C 9.3 °C 34 % 14 km/h (18 km/h) 0 mm0 mm 23.9 °C 23.3 °C 23.2 °C 22.4 °C 20000 m 0 cm 0 min 36 W/m² 1018.9 hPa
18:42 26.8 °C 9.2 °C 33 % 13 km/h (18 km/h) 0 mm0 mm 23.8 °C 23.3 °C 23.2 °C 22.4 °C 20000 m 0 cm 0 min 50.3 W/m² 1018.9 hPa
18:36 27.2 °C 9.1 °C 32 % 12 km/h (17 km/h) 0 mm0 mm 23.8 °C 23.3 °C 23.2 °C 22.4 °C 20000 m 0 cm 4 min 59.2 W/m² 1018.9 hPa
18:30 27.6 °C 9.4 °C 32 % 13 km/h (23 km/h) 0 mm0 mm 23.8 °C 23.3 °C 23.2 °C 22.4 °C 20000 m 0 cm 6 min 82.4 W/m² 1018.8 hPa
18:24 27.7 °C 9.5 °C 32 % 13 km/h (23 km/h) 0 mm0 mm 23.8 °C 23.3 °C 23.2 °C 22.4 °C 20000 m 0 cm 6 min 88.7 W/m² 1018.9 hPa
18:18 27.7 °C 9.5 °C 32 % 10 km/h (18 km/h) 0 mm0 mm 23.8 °C 23.3 °C 23.2 °C 22.4 °C 20000 m 0 cm 6 min 93.6 W/m² 1018.9 hPa
18:12 27.7 °C 9.5 °C 32 % 11 km/h (18 km/h) 0 mm0 mm 23.8 °C 23.3 °C 23.2 °C 22.4 °C 20000 m 0 cm 6 min 106.4 W/m² 1018.9 hPa
18:06 27.9 °C 9.7 °C 32 % 13 km/h (18 km/h) 0 mm0 mm 23.7 °C 23.3 °C 23.2 °C 22.4 °C 20000 m 0 cm 6 min 118.7 W/m² 1018.9 hPa
18:00 28.1 °C 9.9 °C 32 % 12 km/h (18 km/h) 0 mm0 mm 23.8 °C 23.3 °C 23.2 °C 22.4 °C 20000 m 0 cm 6 min 139.4 W/m² 1019 hPa
17:54 27.9 °C 9.2 °C 31 % 11 km/h (19 km/h) 0 mm0 mm 23.7 °C 23.3 °C 23.2 °C 22.4 °C 20000 m 0 cm 6 min 112.6 W/m² 1019 hPa
17:48 28.2 °C 9.5 °C 31 % 13 km/h (22 km/h) 0 mm0 mm 23.7 °C 23.3 °C 23.2 °C 22.4 °C 20000 m 0 cm 6 min 133.2 W/m² 1019 hPa
17:42 28.4 °C 9.6 °C 31 % 14 km/h (22 km/h) 0 mm0 mm 23.7 °C 23.2 °C 23.2 °C 22.4 °C 20000 m 0 cm 6 min 161.3 W/m² 1019.1 hPa
17:36 28.6 °C 9.8 °C 31 % 13 km/h (22 km/h) 0 mm0 mm 23.7 °C 23.3 °C 23.2 °C 22.4 °C 20000 m 0 cm 6 min 166.3 W/m² 1018.9 hPa
17:30 28 °C 9.3 °C 31 % 13 km/h (24 km/h) 0 mm0 mm 23.7 °C 23.2 °C 23.2 °C 22.4 °C 20000 m 0 cm 6 min 164.4 W/m² 1019.1 hPa
17:24 28.4 °C 9.6 °C 31 % 14 km/h (23 km/h) 0 mm0 mm 23.7 °C 23.2 °C 23.2 °C 22.4 °C 20000 m 0 cm 6 min 161 W/m² 1019.1 hPa
17:18 27.9 °C 9.7 °C 32 % 16 km/h (23 km/h) 0 mm0 mm 23.6 °C 23.3 °C 23.2 °C 22.4 °C 20000 m 0 cm 5 min 142.2 W/m² 1019.1 hPa
17:12 27.7 °C 9.5 °C 32 % 15 km/h (23 km/h) 0 mm0 mm 23.6 °C 23.3 °C 23.2 °C 22.4 °C 20000 m 0 cm 6 min 156.2 W/m² 1019.1 hPa
17:06 28.1 °C 9.9 °C 32 % 13 km/h (22 km/h) 0 mm0 mm 23.6 °C 23.2 °C 23.2 °C 22.4 °C 20000 m 0 cm 6 min 154 W/m² 1019.1 hPa
17:00 28.1 °C 9.4 °C 31 % 13 km/h (22 km/h) 0 mm0 mm 23.6 °C 23.2 °C 23.2 °C 22.4 °C 20000 m 0 cm 6 min 152.4 W/m² 1019.2 hPa
16:54 28.4 °C 9.1 °C 30 % 12 km/h (18 km/h) 0 mm0 mm 23.6 °C 23.2 °C 23.2 °C 22.4 °C 20000 m 0 cm 6 min 185.8 W/m² 1019.3 hPa
16:48 28.1 °C 9.9 °C 32 % 12 km/h (18 km/h) 0 mm0 mm 23.6 °C 23.2 °C 23.2 °C 22.4 °C 20000 m 0 cm 5 min 159.2 W/m² 1019.3 hPa
16:42 28.4 °C 9.6 °C 31 % 11 km/h (18 km/h) 0 mm0 mm 23.6 °C 23.2 °C 23.2 °C 22.4 °C 20000 m 0 cm 5 min 172.6 W/m² 1019.3 hPa
16:36 28.1 °C 9.9 °C 32 % 11 km/h (20 km/h) 0 mm0 mm 23.5 °C 23.3 °C 23.2 °C 22.4 °C 20000 m 0 cm 6 min 193.5 W/m² 1019.3 hPa
16:30 28.2 °C 9.5 °C 31 % 14 km/h (22 km/h) 0 mm0 mm 23.5 °C 23.2 °C 23.2 °C 22.4 °C 20000 m 0 cm 6 min 213.5 W/m² 1019.3 hPa
16:24 28.5 °C 9.2 °C 30 % 13 km/h (20 km/h) 0 mm0 mm 23.5 °C 23.2 °C 23.2 °C 22.4 °C 20000 m 0 cm 6 min 246.4 W/m² 1019.4 hPa
16:18 28.3 °C 10 °C 32 % 14 km/h (23 km/h) 0 mm0 mm 23.5 °C 23.2 °C 23.2 °C 22.4 °C 20000 m 0 cm 6 min 251.7 W/m² 1019.4 hPa
16:12 28.1 °C 9.9 °C 32 % 13 km/h (23 km/h) 0 mm0 mm 23.5 °C 23.2 °C 23.2 °C 22.4 °C 20000 m 0 cm 6 min 204.4 W/m² 1019.4 hPa
16:06 27.7 °C 9.5 °C 32 % 10 km/h (20 km/h) 0 mm0 mm 23.5 °C 23.2 °C 23.2 °C 22.4 °C 20000 m 0 cm 5 min 183.5 W/m² 1019.5 hPa
16:00 27.4 °C 9.7 °C 33 % 12 km/h (21 km/h) 0 mm0 mm 23.4 °C 23.2 °C 23.2 °C 22.4 °C 20000 m 0 cm 3 min 170.1 W/m² 1019.6 hPa
15:54 27.5 °C 10.2 °C 34 % 12 km/h (22 km/h) 0 mm0 mm 23.4 °C 23.2 °C 23.2 °C 22.4 °C 20000 m 0 cm 2 min 162.8 W/m² 1019.6 hPa
15:48 27.7 °C 9.5 °C 32 % 12 km/h (18 km/h) 0 mm0 mm 23.4 °C 23.3 °C 23.3 °C 22.4 °C 20000 m 0 cm 5 min 201.5 W/m² 1019.6 hPa
15:42 28.4 °C 10.1 °C 32 % 13 km/h (21 km/h) 0 mm0 mm 23.4 °C 23.2 °C 23.3 °C 22.4 °C 20000 m 0 cm 6 min 200.5 W/m² 1019.6 hPa
15:36 28.2 °C 9.9 °C 32 % 14 km/h (30 km/h) 0 mm0 mm 23.4 °C 23.2 °C 23.2 °C 22.4 °C 20000 m 0 cm 6 min 226.3 W/m² 1019.7 hPa
15:30 28.9 °C 10.5 °C 32 % 14 km/h (27 km/h) 0 mm0 mm 23.4 °C 23.2 °C 23.2 °C 22.4 °C 20000 m 0 cm 6 min 274.6 W/m² 1019.6 hPa
15:24 28.4 °C 10.1 °C 32 % 16 km/h (23 km/h) 0 mm0 mm 23.4 °C 23.2 °C 23.2 °C 22.3 °C 20000 m 0 cm 6 min 252.4 W/m² 1019.7 hPa
15:18 28 °C 9.8 °C 32 % 15 km/h (24 km/h) 0 mm0 mm 23.4 °C 23.3 °C 23.3 °C 22.4 °C 20000 m 0 cm 6 min 236.8 W/m² 1019.8 hPa
15:12 28.8 °C 10.5 °C 32 % 15 km/h (24 km/h) 0 mm0 mm 23.4 °C 23.2 °C 23.3 °C 22.4 °C 20000 m 0 cm 6 min 273.2 W/m² 1019.6 hPa
15:06 28.3 °C 10.5 °C 33 % 15 km/h (23 km/h) 0 mm0 mm 23.3 °C 23.2 °C 23.2 °C 22.4 °C 20000 m 0 cm 6 min 277.7 W/m² 1019.9 hPa
15:00 28.2 °C 10.4 °C 33 % 14 km/h (24 km/h) 0 mm0 mm 23.3 °C 23.2 °C 23.2 °C 22.4 °C 20000 m 0 cm 6 min 269.6 W/m² 1020 hPa
14:54 27.8 °C 10 °C 33 % 15 km/h (24 km/h) 0 mm0 mm 23.3 °C 23.2 °C 23.3 °C 22.4 °C 20000 m 0 cm 6 min 267.6 W/m² 1020 hPa
14:48 28.3 °C 10.5 °C 33 % 15 km/h (25 km/h) 0 mm0 mm 23.3 °C 23.2 °C 23.3 °C 22.4 °C 20000 m 0 cm 6 min 277.8 W/m² 1020 hPa
14:42 27.9 °C 11 °C 35 % 12 km/h (23 km/h) 0 mm0 mm 23.3 °C 23.2 °C 23.3 °C 22.4 °C 20000 m 0 cm 6 min 284.4 W/m² 1020 hPa
14:36 27.4 °C 10.6 °C 35 % 12 km/h (21 km/h) 0 mm0 mm 23.3 °C 23.3 °C 23.3 °C 22.4 °C 20000 m 0 cm 6 min 274.7 W/m² 1020.2 hPa
14:30 27.5 °C 10.2 °C 34 % 13 km/h (22 km/h) 0 mm0 mm 23.3 °C 23.3 °C 23.3 °C 22.4 °C 20000 m 0 cm 6 min 268 W/m² 1020.2 hPa
14:24 27.3 °C 10.1 °C 34 % 13 km/h (27 km/h) 0 mm0 mm 23.3 °C 23.2 °C 23.3 °C 22.4 °C 20000 m 0 cm 6 min 278.2 W/m² 1020.3 hPa
14:18 28 °C 11.1 °C 35 % 15 km/h (27 km/h) 0 mm0 mm 23.3 °C 23.2 °C 23.3 °C 22.4 °C 20000 m 0 cm 6 min 272.8 W/m² 1020.2 hPa
14:12 27.6 °C 10.3 °C 34 % 12 km/h (22 km/h) 0 mm0 mm 23.3 °C 23.3 °C 23.3 °C 22.4 °C 20000 m 0 cm 6 min 284.6 W/m² 1020.3 hPa
14:06 27.2 °C 10 °C 34 % 11 km/h (26 km/h) 0 mm0 mm 23.3 °C 23.3 °C 23.3 °C 22.4 °C 20000 m 0 cm 6 min 284.4 W/m² 1020.3 hPa
14:00 27.3 °C 10.9 °C 36 % 17 km/h (26 km/h) 0 mm0 mm 23.3 °C 23.2 °C 23.3 °C 22.4 °C 20000 m 0 cm 6 min 284.9 W/m² 1020.4 hPa
13:54 27.8 °C 10.5 °C 34 % 14 km/h (26 km/h) 0 mm0 mm 23.3 °C 23.3 °C 23.3 °C 22.4 °C 20000 m 0 cm 6 min 287.1 W/m² 1020.3 hPa
13:48 27.1 °C 10.7 °C 36 % 12 km/h (23 km/h) 0 mm0 mm 23.3 °C 23.3 °C 23.3 °C 22.4 °C 20000 m 0 cm 6 min 286.3 W/m² 1020.4 hPa
13:42 27.1 °C 10.7 °C 36 % 12 km/h (24 km/h) 0 mm0 mm 23.3 °C 23.3 °C 23.3 °C 22.4 °C 20000 m 0 cm 6 min 286.9 W/m² 1020.5 hPa
13:36 26.9 °C 10.6 °C 36 % 13 km/h (22 km/h) 0 mm0 mm 23.3 °C 23.3 °C 23.3 °C 22.4 °C 20000 m 0 cm 6 min 287.6 W/m² 1020.5 hPa
13:30 27.2 °C 10.4 °C 35 % 12 km/h (22 km/h) 0 mm0 mm 23.3 °C 23.3 °C 23.3 °C 22.4 °C 20000 m 0 cm 6 min 283.8 W/m² 1020.5 hPa
13:24 27.2 °C 11.2 °C 37 % 13 km/h (27 km/h) 0 mm0 mm 23.3 °C 23.3 °C 23.3 °C 22.4 °C 20000 m 0 cm 6 min 284.6 W/m² 1020.6 hPa
13:18 27 °C 11.9 °C 39 % 11 km/h (23 km/h) 0 mm0 mm 23.2 °C 23.3 °C 23.3 °C 22.4 °C 20000 m 0 cm 6 min 273.1 W/m² 1020.6 hPa
13:12 26.6 °C 10.7 °C 37 % 12 km/h (21 km/h) 0 mm0 mm 23.2 °C 23.3 °C 23.3 °C 22.4 °C 20000 m 0 cm 6 min 275.5 W/m² 1020.8 hPa
13:06 26.4 °C 11.3 °C 39 % 13 km/h (22 km/h) 0 mm0 mm 23.2 °C 23.3 °C 23.3 °C 22.4 °C 20000 m 0 cm 6 min 273.5 W/m² 1020.7 hPa
13:00 26.7 °C 11.6 °C 39 % 13 km/h (22 km/h) 0 mm0 mm 23.3 °C 23.3 °C 23.3 °C 22.4 °C 20000 m 0 cm 6 min 277.2 W/m² 1020.7 hPa
12:54 26.3 °C 10.8 °C 38 % 13 km/h (22 km/h) 0 mm0 mm 23.3 °C 23.3 °C 23.3 °C 22.4 °C 20000 m 0 cm 6 min 278.3 W/m² 1020.9 hPa
12:48 26.4 °C 11.3 °C 39 % 13 km/h (25 km/h) 0 mm0 mm 23.2 °C 23.3 °C 23.3 °C 22.4 °C 20000 m 0 cm 6 min 274.9 W/m² 1020.9 hPa
12:42 26.2 °C 11.5 °C 40 % 14 km/h (25 km/h) 0 mm0 mm 23.2 °C 23.3 °C 23.3 °C 22.4 °C 20000 m 0 cm 6 min 262.8 W/m² 1021 hPa
12:36 26.1 °C 11.4 °C 40 % 14 km/h (24 km/h) 0 mm0 mm 23.2 °C 23.3 °C 23.3 °C 22.4 °C 20000 m 0 cm 6 min 261.9 W/m² 1021.1 hPa
12:30 26 °C 10.6 °C 38 % 12 km/h (21 km/h) 0 mm0 mm 23.3 °C 23.3 °C 23.3 °C 22.4 °C 20000 m 0 cm 6 min 264.2 W/m² 1021.1 hPa
12:24 26.1 °C 11.4 °C 40 % 12 km/h (21 km/h) 0 mm0 mm 23.2 °C 23.3 °C 23.3 °C 22.4 °C 20000 m 0 cm 6 min 256.2 W/m² 1021 hPa
12:18 26.1 °C 11.8 °C 41 % 12 km/h (23 km/h) 0 mm0 mm 23.3 °C 23.3 °C 23.3 °C 22.4 °C 20000 m 0 cm 6 min 256.3 W/m² 1021.1 hPa
12:12 25.8 °C 11.5 °C 41 % 13 km/h (25 km/h) 0 mm0 mm 23.3 °C 23.3 °C 23.3 °C 22.4 °C 20000 m 0 cm 6 min 264.2 W/m² 1021.1 hPa
12:06 25.8 °C 13 °C 45 % 10 km/h (23 km/h) 0 mm0 mm 23.3 °C 23.3 °C 23.3 °C 22.4 °C 20000 m 0 cm 6 min 257.8 W/m² 1021.2 hPa
12:00 25.7 °C 13.2 °C 46 % 9 km/h (17 km/h) 0 mm0 mm 23.3 °C 23.4 °C 23.4 °C 22.4 °C 19910 m 0 cm 6 min 264.1 W/m² 1021.3 hPa
11:54 25 °C 12.6 °C 46 % 11 km/h (21 km/h) 0 mm0 mm 23.3 °C 23.3 °C 23.3 °C 22.4 °C 20000 m 0 cm 6 min 258.9 W/m² 1021.5 hPa
11:48 25 °C 12.9 °C 47 % 13 km/h (23 km/h) 0 mm0 mm 23.3 °C 23.4 °C 23.4 °C 22.4 °C 20000 m 0 cm 6 min 255.3 W/m² 1021.6 hPa
11:42 25.1 °C 12.7 °C 46 % 12 km/h (19 km/h) 0 mm0 mm 23.3 °C 23.4 °C 23.4 °C 22.4 °C 20000 m 0 cm 6 min 250 W/m² 1021.6 hPa
11:36 24.9 °C 13.1 °C 48 % 13 km/h (22 km/h) 0 mm0 mm 23.3 °C 23.4 °C 23.4 °C 22.4 °C 20000 m 0 cm 6 min 245 W/m² 1021.6 hPa
11:30 24.6 °C 12.5 °C 47 % 12 km/h (22 km/h) 0 mm0 mm 23.3 °C 23.4 °C 23.4 °C 22.4 °C 20000 m 0 cm 6 min 239.6 W/m² 1021.7 hPa
11:24 24.4 °C 12.7 °C 48 % 10 km/h (17 km/h) 0 mm0 mm 23.3 °C 23.4 °C 23.4 °C 22.4 °C 20000 m 0 cm 6 min 233.7 W/m² 1021.7 hPa
11:18 24.1 °C 12.7 °C 49 % 9 km/h (18 km/h) 0 mm0 mm 23.3 °C 23.4 °C 23.4 °C 22.3 °C 20000 m 0 cm 6 min 229.6 W/m² 1021.7 hPa
11:12 23.8 °C 13.3 °C 52 % 8 km/h (18 km/h) 0 mm0 mm 23.3 °C 23.4 °C 23.4 °C 22.4 °C 20000 m 0 cm 6 min 224.9 W/m² 1021.7 hPa
11:06 23.5 °C 13.1 °C 52 % 7 km/h (13 km/h) 0 mm0 mm 23.3 °C 23.4 °C 23.4 °C 22.4 °C 20000 m 0 cm 6 min 219.9 W/m² 1021.8 hPa
11:00 23.2 °C 13.7 °C 55 % 8 km/h (15 km/h) 0 mm0 mm 23.3 °C 23.4 °C 23.4 °C 22.4 °C 20000 m 0 cm 6 min 215.3 W/m² 1021.8 hPa
10:54 22.9 °C 12.8 °C 53 % 9 km/h (15 km/h) 0 mm0 mm 23.3 °C 23.4 °C 23.4 °C 22.4 °C 20000 m 0 cm 6 min 210.5 W/m² 1021.8 hPa
10:48 22.9 °C 13.4 °C 55 % 8 km/h (14 km/h) 0 mm0 mm 23.4 °C 23.4 °C 23.4 °C 22.4 °C 20000 m 0 cm 6 min 205.8 W/m² 1021.8 hPa
10:42 22.6 °C 13.1 °C 55 % 8 km/h (13 km/h) 0 mm0 mm 23.4 °C 23.4 °C 23.4 °C 22.4 °C 20000 m 0 cm 6 min 200 W/m² 1021.9 hPa
10:36 22.5 °C 13 °C 55 % 6 km/h (13 km/h) 0 mm0 mm 23.4 °C 23.4 °C 23.4 °C 22.4 °C 20000 m 0 cm 6 min 195.6 W/m² 1022 hPa
10:30 21.9 °C 12.7 °C 56 % 7 km/h (12 km/h) 0 mm0 mm 23.3 °C 23.4 °C 23.4 °C 22.4 °C 20000 m 0 cm 6 min 190.4 W/m² 1022 hPa
10:24 21.8 °C 13.2 °C 58 % 8 km/h (15 km/h) 0 mm0 mm 23.4 °C 23.4 °C 23.4 °C 22.4 °C 20000 m 0 cm 6 min 184.5 W/m² 1022.1 hPa
10:18 21.3 °C 13.5 °C 61 % 8 km/h (15 km/h) 0 mm0 mm 23.4 °C 23.4 °C 23.4 °C 22.4 °C 20000 m 0 cm 6 min 178.7 W/m² 1022.2 hPa
10:12 21 °C 13.2 °C 61 % 8 km/h (13 km/h) 0 mm0 mm 23.4 °C 23.4 °C 23.4 °C 22.4 °C 20000 m 0 cm 6 min 173.1 W/m² 1022.2 hPa
10:06 20.7 °C 13.4 °C 63 % 7 km/h (12 km/h) 0 mm0 mm 23.4 °C 23.4 °C 23.4 °C 22.3 °C 20000 m 0 cm 6 min 165.9 W/m² 1022.2 hPa
10:00 20.2 °C 13.2 °C 64 % 7 km/h (11 km/h) 0 mm0 mm 23.4 °C 23.5 °C 23.4 °C 22.4 °C 20000 m 0 cm 6 min 161.2 W/m² 1022.3 hPa
09:54 20.1 °C 13.1 °C 64 % 6 km/h (11 km/h) 0 mm0 mm 23.4 °C 23.5 °C 23.4 °C 22.4 °C 20000 m 0 cm 6 min 154.4 W/m² 1022.2 hPa
09:48 19.7 °C 13.2 °C 66 % 6 km/h (11 km/h) 0 mm0 mm 23.4 °C 23.5 °C 23.4 °C 22.4 °C 20000 m 0 cm 6 min 148.3 W/m² 1022.2 hPa
09:42 19.2 °C 13.1 °C 68 % 6 km/h (11 km/h) 0 mm0 mm 23.5 °C 23.5 °C 23.4 °C 22.4 °C 20000 m 0 cm 6 min 142.2 W/m² 1022.3 hPa
09:36 18.9 °C 12.9 °C 68 % 7 km/h (11 km/h) 0 mm0 mm 23.5 °C 23.5 °C 23.4 °C 22.4 °C 20000 m 0 cm 6 min 136.6 W/m² 1022.2 hPa
09:30 18.8 °C 13 °C 69 % 6 km/h (9 km/h) 0 mm0 mm 23.5 °C 23.5 °C 23.4 °C 22.4 °C 20000 m 0 cm 6 min 129.9 W/m² 1022.2 hPa
09:24 18.6 °C 13.5 °C 72 % 6 km/h (9 km/h) 0 mm0 mm 23.5 °C 23.5 °C 23.4 °C 22.4 °C 20000 m 0 cm 6 min 123.2 W/m² 1022.3 hPa
09:18 18.4 °C 12.8 °C 70 % 5 km/h (8 km/h) 0 mm0 mm 23.5 °C 23.5 °C 23.4 °C 22.4 °C 20000 m 0 cm 6 min 116.7 W/m² 1022.3 hPa
09:12 18.4 °C 13 °C 71 % 4 km/h (8 km/h) 0 mm0 mm 23.5 °C 23.5 °C 23.4 °C 22.4 °C 20000 m 0 cm 6 min 110.4 W/m² 1022.3 hPa
09:06 17.7 °C 13.4 °C 76 % 4 km/h (6 km/h) 0 mm0 mm 23.5 °C 23.5 °C 23.4 °C 22.4 °C 20000 m 0 cm 6 min 103.5 W/m² 1022.3 hPa
09:00 17.4 °C 13.1 °C 76 % 5 km/h (7 km/h) 0 mm0 mm 23.5 °C 23.5 °C 23.4 °C 22.4 °C 20000 m 0 cm 6 min 96.7 W/m² 1022.4 hPa
08:54 17.3 °C 12.6 °C 74 % 4 km/h (7 km/h) 0 mm0 mm 23.6 °C 23.6 °C 23.4 °C 22.4 °C 20000 m 0 cm 6 min 90.4 W/m² 1022.4 hPa
08:48 17.4 °C 12.5 °C 73 % 3 km/h (6 km/h) 0 mm0 mm 23.6 °C 23.6 °C 23.4 °C 22.4 °C 20000 m 0 cm 6 min 84.4 W/m² 1022.4 hPa
08:42 16.8 °C 12.7 °C 77 % 3 km/h (5 km/h) 0 mm0 mm 23.6 °C 23.6 °C 23.5 °C 22.4 °C 20000 m 0 cm 6 min 78 W/m² 1022.5 hPa
08:36 16.5 °C 12.8 °C 79 % 3 km/h (5 km/h) 0 mm0 mm 23.6 °C 23.6 °C 23.4 °C 22.4 °C 20000 m 0 cm 6 min 71.7 W/m² 1022.5 hPa
08:30 16.4 °C 12.7 °C 79 % 4 km/h (6 km/h) 0 mm0 mm 23.6 °C 23.5 °C 23.4 °C 22.4 °C 20000 m 0 cm 6 min 64.1 W/m² 1022.5 hPa
08:24 15.9 °C 12.6 °C 81 % 4 km/h (6 km/h) 0 mm0 mm 23.6 °C 23.6 °C 23.5 °C 22.4 °C 20000 m 0 cm 6 min 57.3 W/m² 1022.4 hPa
08:18 15.8 °C 12.5 °C 81 % 4 km/h (6 km/h) 0 mm0 mm 23.6 °C 23.6 °C 23.4 °C 22.4 °C 20000 m 0 cm 6 min 51.9 W/m² 1022.4 hPa
08:12 15.6 °C 12.3 °C 81 % 4 km/h (6 km/h) 0 mm0 mm 23.6 °C 23.6 °C 23.4 °C 22.4 °C 20000 m 0 cm 6 min 46.3 W/m² 1022.5 hPa
08:06 15.4 °C 12.7 °C 84 % 4 km/h (6 km/h) 0 mm0 mm 23.6 °C 23.6 °C 23.5 °C 22.4 °C 20000 m 0 cm 6 min 41 W/m² 1022.4 hPa
08:00 15.2 °C 12.9 °C 86 % 3 km/h (5 km/h) 0 mm0 mm 23.7 °C 23.6 °C 23.5 °C 22.4 °C 20000 m 0 cm 6 min 36 W/m² 1022.4 hPa
07:54 14.8 °C 12.5 °C 86 % 4 km/h (7 km/h) 0 mm0 mm 23.7 °C 23.6 °C 23.5 °C 22.4 °C 20000 m 0 cm 6 min 31.7 W/m² 1022.5 hPa
07:48 14.5 °C 12.5 °C 88 % 5 km/h (8 km/h) 0 mm0 mm 23.7 °C 23.6 °C 23.4 °C 22.4 °C 20000 m 0 cm 6 min 27.3 W/m² 1022.4 hPa
07:42 13.8 °C 12.2 °C 90 % 6 km/h (8 km/h) 0 mm0 mm 23.7 °C 23.6 °C 23.5 °C 22.4 °C 20000 m 0 cm 6 min 22.7 W/m² 1022.4 hPa
07:36 13.2 °C 11.8 °C 91 % 5 km/h (8 km/h) 0 mm0 mm 23.7 °C 23.6 °C 23.4 °C 22.4 °C 20000 m 0 cm 6 min 18.1 W/m² 1022.3 hPa
07:30 12.7 °C 11.4 °C 92 % 6 km/h (7 km/h) 0 mm0 mm 23.7 °C 23.6 °C 23.5 °C 22.4 °C 20000 m 0 cm 6 min 12.8 W/m² 1022.4 hPa
07:24 12.6 °C 11.2 °C 91 % 6 km/h (7 km/h) 0 mm0 mm 23.7 °C 23.6 °C 23.5 °C 22.4 °C 20000 m 0 cm 2 min 2.8 W/m² 1022.4 hPa
07:18 12.7 °C 11.1 °C 90 % 6 km/h (8 km/h) 0 mm0 mm 23.7 °C 23.6 °C 23.4 °C 22.4 °C 20000 m 0 cm 0 min 0 W/m² 1022.4 hPa
07:12 12.8 °C 11.4 °C 91 % 7 km/h (8 km/h) 0 mm0 mm 23.8 °C 23.6 °C 23.4 °C 22.4 °C 20000 m 0 cm 0 min 0 W/m² 1022.3 hPa
07:06 12.8 °C 11.4 °C 91 % 7 km/h (9 km/h) 0 mm0 mm 23.8 °C 23.6 °C 23.5 °C 22.4 °C 20000 m 0 cm 0 min 0 W/m² 1022.3 hPa
07:00 12.8 °C 11.2 °C 90 % 7 km/h (9 km/h) 0 mm0 mm 23.8 °C 23.6 °C 23.5 °C 22.4 °C 20000 m 0 cm 0 min 0 W/m² 1022.3 hPa
06:54 12.9 °C 11.3 °C 90 % 8 km/h (9 km/h) 0 mm0 mm 23.8 °C 23.7 °C 23.5 °C 22.4 °C 20000 m 0 cm 0 min 0 W/m² 1022.3 hPa
06:48 13 °C 11.4 °C 90 % 6 km/h (8 km/h) 0 mm0 mm 23.8 °C 23.7 °C 23.5 °C 22.4 °C 20000 m 0 cm 0 min 0 W/m² 1022.2 hPa
06:42 13 °C 11.4 °C 90 % 5 km/h (7 km/h) 0 mm0 mm 23.8 °C 23.7 °C 23.5 °C 22.4 °C 20000 m 0 cm 0 min 0 W/m² 1022.3 hPa
06:36 13 °C 11.2 °C 89 % 5 km/h (7 km/h) 0 mm0 mm 23.9 °C 23.7 °C 23.5 °C 22.4 °C 20000 m 0 cm 0 min 0 W/m² 1022.3 hPa
06:30 13 °C 11.2 °C 89 % 6 km/h (7 km/h) 0 mm0 mm 23.8 °C 23.7 °C 23.5 °C 22.4 °C 20000 m 0 cm 0 min 0 W/m² 1022.2 hPa
06:24 13.2 °C 11.3 °C 88 % 6 km/h (6 km/h) 0 mm0 mm 23.8 °C 23.7 °C 23.5 °C 22.4 °C 20000 m 0 cm 0 min 0 W/m² 1022.1 hPa
06:18 13.3 °C 11.4 °C 88 % 6 km/h (7 km/h) 0 mm0 mm 23.9 °C 23.7 °C 23.5 °C 22.4 °C 20000 m 0 cm 0 min 0 W/m² 1022.1 hPa
06:12 13.4 °C 11.5 °C 88 % 6 km/h (7 km/h) 0 mm0 mm 23.9 °C 23.7 °C 23.5 °C 22.4 °C 20000 m 0 cm 0 min 0 W/m² 1022.1 hPa
06:06 13.4 °C 11.5 °C 88 % 6 km/h (8 km/h) 0 mm0 mm 23.9 °C 23.7 °C 23.5 °C 22.4 °C 20000 m 0 cm 0 min 0 W/m² 1022.2 hPa
06:00 13.4 °C 11.3 °C 87 % 7 km/h (9 km/h) 0 mm0 mm 23.9 °C 23.7 °C 23.5 °C 22.4 °C 20000 m 0 cm 0 min 0 W/m² 1022.1 hPa
05:54 13.4 °C 11.3 °C 87 % 6 km/h (9 km/h) 0 mm0 mm 23.9 °C 23.7 °C 23.5 °C 22.4 °C 20000 m 0 cm 0 min 0 W/m² 1022.1 hPa
05:48 13.4 °C 11.3 °C 87 % 6 km/h (8 km/h) 0 mm0 mm 23.9 °C 23.8 °C 23.5 °C 22.4 °C 20000 m 0 cm 0 min 0 W/m² 1022.1 hPa
05:42 13.5 °C 11.4 °C 87 % 6 km/h (9 km/h) 0 mm0 mm 23.9 °C 23.7 °C 23.5 °C 22.4 °C 20000 m 0 cm 0 min 0 W/m² 1022 hPa
05:36 13.5 °C 11.2 °C 86 % 7 km/h (9 km/h) 0 mm0 mm 23.9 °C 23.7 °C 23.5 °C 22.4 °C 20000 m 0 cm 0 min 0 W/m² 1022.1 hPa
05:30 13.6 °C 11.3 °C 86 % 7 km/h (9 km/h) 0 mm0 mm 23.9 °C 23.7 °C 23.5 °C 22.4 °C 20000 m 0 cm 0 min 0 W/m² 1022.1 hPa
05:24 13.7 °C 11.2 °C 85 % 7 km/h (9 km/h) 0 mm0 mm 24 °C 23.7 °C 23.5 °C 22.4 °C 20000 m 0 cm 0 min 0 W/m² 1022.2 hPa
05:18 13.9 °C 11.4 °C 85 % 8 km/h (9 km/h) 0 mm0 mm 24 °C 23.7 °C 23.5 °C 22.4 °C 20000 m 0 cm 0 min 0 W/m² 1022.2 hPa
05:12 13.9 °C 11.4 °C 85 % 7 km/h (9 km/h) 0 mm0 mm 24 °C 23.7 °C 23.5 °C 22.4 °C 20000 m 0 cm 0 min 0 W/m² 1022.2 hPa
05:06 14 °C 11.5 °C 85 % 6 km/h (8 km/h) 0 mm0 mm 24 °C 23.8 °C 23.5 °C 22.4 °C 20000 m 0 cm 0 min 0 W/m² 1022.2 hPa
05:00 13.9 °C 11.4 °C 85 % 6 km/h (9 km/h) 0 mm0 mm 24 °C 23.7 °C 23.5 °C 22.4 °C 20000 m 0 cm 0 min 0 W/m² 1022.4 hPa
04:54 13.8 °C 11.3 °C 85 % 6 km/h (9 km/h) 0 mm0 mm 24 °C 23.8 °C 23.5 °C 22.4 °C 20000 m 0 cm 0 min 0 W/m² 1022.3 hPa
04:48 13.8 °C 11.3 °C 85 % 5 km/h (9 km/h) 0 mm0 mm 24 °C 23.8 °C 23.5 °C 22.4 °C 20000 m 0 cm 0 min 0 W/m² 1022.4 hPa
04:42 13.8 °C 11.3 °C 85 % 6 km/h (8 km/h) 0 mm0 mm 24 °C 23.8 °C 23.5 °C 22.4 °C 20000 m 0 cm 0 min 0 W/m² 1022.4 hPa
04:36 14 °C 11.3 °C 84 % 6 km/h (8 km/h) 0 mm0 mm 24.1 °C 23.8 °C 23.5 °C 22.4 °C 20000 m 0 cm 0 min 0 W/m² 1022.3 hPa
04:30 14.3 °C 11.4 °C 83 % 5 km/h (6 km/h) 0 mm0 mm 24.1 °C 23.8 °C 23.5 °C 22.4 °C 20000 m 0 cm 0 min 0 W/m² 1022.3 hPa
04:24 14.5 °C 11.6 °C 83 % 5 km/h (7 km/h) 0 mm0 mm 24.1 °C 23.8 °C 23.5 °C 22.4 °C 20000 m 0 cm 0 min 0 W/m² 1022.3 hPa
04:18 14.5 °C 11.6 °C 83 % 5 km/h (7 km/h) 0 mm0 mm 24.1 °C 23.8 °C 23.5 °C 22.4 °C 20000 m 0 cm 0 min 0 W/m² 1022.3 hPa
04:12 14.6 °C 11.7 °C 83 % 6 km/h (8 km/h) 0 mm0 mm 24.1 °C 23.8 °C 23.5 °C 22.4 °C 20000 m 0 cm 0 min 0 W/m² 1022.3 hPa
04:06 14.6 °C 11.7 °C 83 % 8 km/h (10 km/h) 0 mm0 mm 24.1 °C 23.8 °C 23.5 °C 22.3 °C 20000 m 0 cm 0 min 0 W/m² 1022.3 hPa
04:00 14.4 °C 11.7 °C 84 % 8 km/h (10 km/h) 0 mm0 mm 24.1 °C 23.8 °C 23.5 °C 22.4 °C 20000 m 0 cm 0 min 0 W/m² 1022.2 hPa
03:54 14.5 °C 11.6 °C 83 % 7 km/h (8 km/h) 0 mm0 mm 24.1 °C 23.8 °C 23.5 °C 22.4 °C 20000 m 0 cm 0 min 0 W/m² 1022.2 hPa
03:48 14.6 °C 11.7 °C 83 % 6 km/h (8 km/h) 0 mm0 mm 24.1 °C 23.8 °C 23.5 °C 22.4 °C 20000 m 0 cm 0 min 0 W/m² 1022.2 hPa
03:42 14.6 °C 11.9 °C 84 % 5 km/h (8 km/h) 0 mm0 mm 24.1 °C 23.8 °C 23.5 °C 22.4 °C 20000 m 0 cm 0 min 0 W/m² 1022.2 hPa
03:36 14.6 °C 11.7 °C 83 % 4 km/h (5 km/h) 0 mm0 mm 24.2 °C 23.8 °C 23.5 °C 22.4 °C 20000 m 0 cm 0 min 0 W/m² 1022.2 hPa
03:30 14.4 °C 11.7 °C 84 % 3 km/h (4 km/h) 0 mm0 mm 24.2 °C 23.8 °C 23.5 °C 22.4 °C 20000 m 0 cm 0 min 0 W/m² 1022.3 hPa
03:24 14.4 °C 11.7 °C 84 % 2 km/h (4 km/h) 0 mm0 mm 24.2 °C 23.8 °C 23.5 °C 22.4 °C 20000 m 0 cm 0 min 0 W/m² 1022.3 hPa
03:18 14.4 °C 11.7 °C 84 % 4 km/h (6 km/h) 0 mm0 mm 24.2 °C 23.8 °C 23.5 °C 22.4 °C 20000 m 0 cm 0 min 0 W/m² 1022.3 hPa
03:12 14.5 °C 12 °C 85 % 5 km/h (6 km/h) 0 mm0 mm 24.2 °C 23.8 °C 23.5 °C 22.4 °C 20000 m 0 cm 0 min 0 W/m² 1022.3 hPa
03:06 14.5 °C 12 °C 85 % 6 km/h (7 km/h) 0 mm0 mm 24.2 °C 23.8 °C 23.5 °C 22.4 °C 20000 m 0 cm 0 min 0 W/m² 1022.2 hPa
03:00 14.6 °C 11.9 °C 84 % 6 km/h (8 km/h) 0 mm0 mm 24.2 °C 23.8 °C 23.5 °C 22.4 °C 20000 m 0 cm 0 min 0 W/m² 1022.2 hPa
02:54 14.6 °C 11.9 °C 84 % 6 km/h (8 km/h) 0 mm0 mm 24.2 °C 23.8 °C 23.5 °C 22.4 °C 20000 m 0 cm 0 min 0 W/m² 1022.3 hPa
02:48 14.7 °C 12 °C 84 % 5 km/h (7 km/h) 0 mm0 mm 24.2 °C 23.8 °C 23.5 °C 22.4 °C 20000 m 0 cm 0 min 0 W/m² 1022.3 hPa
02:42 14.7 °C 11.8 °C 83 % 5 km/h (9 km/h) 0 mm0 mm 24.2 °C 23.8 °C 23.5 °C 22.4 °C 20000 m 0 cm 0 min 0 W/m² 1022.3 hPa
02:36 14.8 °C 11.9 °C 83 % 8 km/h (10 km/h) 0 mm0 mm 24.2 °C 23.8 °C 23.5 °C 22.4 °C 20000 m 0 cm 0 min 0 W/m² 1022.4 hPa
02:30 14.7 °C 11.7 °C 82 % 8 km/h (10 km/h) 0 mm0 mm 24.3 °C 23.8 °C 23.5 °C 22.4 °C 20000 m 0 cm 0 min 0 W/m² 1022.4 hPa
02:24 14.6 °C 11.4 °C 81 % 8 km/h (9 km/h) 0 mm0 mm 24.3 °C 23.8 °C 23.4 °C 22.4 °C 20000 m 0 cm 0 min 0 W/m² 1022.5 hPa
02:18 14.8 °C 11.6 °C 81 % 6 km/h (8 km/h) 0 mm0 mm 24.3 °C 23.8 °C 23.4 °C 22.4 °C 20000 m 0 cm 0 min 0 W/m² 1022.5 hPa
02:12 14.9 °C 11.7 °C 81 % 5 km/h (7 km/h) 0 mm0 mm 24.3 °C 23.8 °C 23.5 °C 22.4 °C 20000 m 0 cm 0 min 0 W/m² 1022.4 hPa
02:06 15 °C 11.8 °C 81 % 6 km/h (9 km/h) 0 mm0 mm 24.3 °C 23.8 °C 23.5 °C 22.4 °C 20000 m 0 cm 0 min 0 W/m² 1022.4 hPa
02:00 14.9 °C 11.9 °C 82 % 6 km/h (9 km/h) 0 mm0 mm 24.3 °C 23.8 °C 23.4 °C 22.4 °C 20000 m 0 cm 0 min 0 W/m² 1022.4 hPa
01:54 14.7 °C 11.7 °C 82 % 5 km/h (7 km/h) 0 mm0 mm 24.3 °C 23.8 °C 23.4 °C 22.4 °C 20000 m 0 cm 0 min 0 W/m² 1022.5 hPa
01:48 14.9 °C 11.9 °C 82 % 5 km/h (6 km/h) 0 mm0 mm 24.3 °C 23.8 °C 23.5 °C 22.4 °C 20000 m 0 cm 0 min 0 W/m² 1022.4 hPa
01:42 15 °C 12.1 °C 83 % 5 km/h (6 km/h) 0 mm0 mm 24.3 °C 23.8 °C 23.4 °C 22.4 °C 20000 m 0 cm 0 min 0 W/m² 1022.4 hPa 0  
01:36 15.1 °C 12 °C 82 % 4 km/h (5 km/h) 0 mm0 mm 24.3 °C 23.8 °C 23.4 °C 22.4 °C 20000 m 0 cm 0 min 0 W/m² 1022.3 hPa
01:30 15.2 °C 12 °C 81 % 4 km/h (6 km/h) 0 mm0 mm 24.3 °C 23.8 °C 23.4 °C 22.4 °C 20000 m 0 cm 0 min 0 W/m² 1022.4 hPa
01:24 15.4 °C 12 °C 80 % 6 km/h (8 km/h) 0 mm0 mm 24.4 °C 23.8 °C 23.5 °C 22.4 °C 20000 m 0 cm 0 min 0 W/m² 1022.3 hPa
01:18 15.5 °C 12.1 °C 80 % 8 km/h (10 km/h) 0 mm0 mm 24.4 °C 23.8 °C 23.5 °C 22.4 °C 20000 m 0 cm 0 min 0 W/m² 1022.3 hPa
01:12 15.6 °C 12.2 °C 80 % 8 km/h (10 km/h) 0 mm0 mm 24.3 °C 23.8 °C 23.4 °C 22.4 °C 20000 m 0 cm 0 min 0 W/m² 1022.3 hPa
01:06 15.5 °C 12.1 °C 80 % 6 km/h (9 km/h) 0 mm0 mm 24.4 °C 23.8 °C 23.4 °C 22.4 °C 20000 m 0 cm 0 min 0 W/m² 1022.3 hPa
01:00 15.8 °C 12.5 °C 81 % 5 km/h (7 km/h) 0 mm0 mm 24.4 °C 23.8 °C 23.5 °C 22.4 °C 20000 m 0 cm 0 min 0 W/m² 1022.2 hPa
00:54 15.7 °C 12.4 °C 81 % 6 km/h (8 km/h) 0 mm0 mm 24.4 °C 23.8 °C 23.4 °C 22.4 °C 20000 m 0 cm 0 min 0 W/m² 1022.3 hPa
00:48 15.6 °C 12.5 °C 82 % 7 km/h (8 km/h) 0 mm0 mm 24.4 °C 23.8 °C 23.4 °C 22.4 °C 20000 m 0 cm 0 min 0 W/m² 1022.3 hPa
00:42 15.7 °C 12.4 °C 81 % 6 km/h (8 km/h) 0 mm0 mm 24.4 °C 23.8 °C 23.4 °C 22.4 °C 20000 m 0 cm 0 min 0 W/m² 1022.3 hPa
00:36 15.8 °C 12.5 °C 81 % 6 km/h (9 km/h) 0 mm0 mm 24.4 °C 23.8 °C 23.4 °C 22.4 °C 20000 m 0 cm 0 min 0 W/m² 1022.2 hPa
00:30 15.9 °C 12.5 °C 80 % 7 km/h (11 km/h) 0 mm0 mm 24.4 °C 23.8 °C 23.4 °C 22.4 °C 20000 m 0 cm 0 min 0 W/m² 1022.2 hPa
00:24 15.9 °C 12.3 °C 79 % 8 km/h (12 km/h) 0 mm0 mm 24.4 °C 23.8 °C 23.4 °C 22.4 °C 20000 m 0 cm 0 min 0 W/m² 1022.2 hPa
00:18 16 °C 12.4 °C 79 % 8 km/h (11 km/h) 0 mm0 mm 24.4 °C 23.8 °C 23.4 °C 22.4 °C 20000 m 0 cm 0 min 0 W/m² 1022.2 hPa
00:12 16.2 °C 12.6 °C 79 % 8 km/h (11 km/h) 0 mm0 mm 24.4 °C 23.8 °C 23.4 °C 22.4 °C 20000 m 0 cm 0 min 0 W/m² 1022.2 hPa
00:06 16.4 °C 12.6 °C 78 % 7 km/h (10 km/h) 0 mm0 mm 24.4 °C 23.8 °C 23.4 °C 22.4 °C 20000 m 0 cm 0 min 0 W/m² 1022.2 hPa
00:00 16.5 °C 12.5 °C 77 % 6 km/h (9 km/h) 0 mm0 mm 24.5 °C 23.8 °C 23.4 °C 22.4 °C 20000 m 0 cm 0 min 0 W/m² 1022.2 hPa

Données via Météo-France

Relevés météo à Amberieu

Cette page rassemble les observations de la station de Amberieu : température, humidité, vent, précipitations et pression atmosphérique. Les graphiques facilitent le suivi de la journée, tandis que le tableau donne accès aux mesures horaires et infra-horaires disponibles.

Pour replacer ces mesures dans leur contexte, consultez la climatologie de Amberieu ainsi que ses normales et records. Retrouvez aussi la carte des observations météo en temps réel.